createdAt,value
2023-05-05T00:00:04.117Z,67.50
2023-05-05T00:02:37.286Z,67.62
2023-05-05T00:05:09.162Z,67.47
2023-05-05T00:07:39.748Z,67.65
2023-05-05T00:10:11.132Z,67.57
2023-05-05T00:12:41.811Z,67.41
2023-05-05T00:15:12.160Z,67.49
2023-05-05T00:17:43.038Z,67.51
2023-05-05T00:20:16.577Z,67.67
2023-05-05T00:22:46.218Z,67.53
2023-05-05T00:25:16.828Z,67.61
2023-05-05T00:27:48.827Z,67.63
2023-05-05T00:30:20.318Z,67.77
2023-05-05T00:32:51.414Z,67.58
2023-05-05T00:35:23.046Z,67.66
2023-05-05T00:37:53.821Z,67.52
2023-05-05T00:40:25.090Z,67.60
2023-05-05T00:42:56.009Z,67.63
2023-05-05T00:45:28.322Z,67.27
2023-05-05T00:48:02.574Z,67.43
2023-05-05T00:50:33.227Z,67.11
2023-05-05T00:53:06.138Z,67.05
2023-05-05T00:55:36.931Z,67.13
2023-05-05T00:58:10.066Z,67.16
2023-05-05T01:00:40.654Z,67.16
2023-05-05T01:03:13.111Z,67.13
2023-05-05T01:06:04.932Z,67.12
2023-05-05T01:08:38.973Z,66.91
2023-05-05T01:11:29.277Z,66.90
2023-05-05T01:14:08.969Z,67.09
2023-05-05T01:16:42.853Z,67.16
2023-05-05T01:19:43.532Z,67.00
2023-05-05T01:22:16.086Z,67.16
2023-05-05T01:25:13.738Z,67.13
2023-05-05T01:27:56.451Z,67.10
2023-05-05T01:30:48.367Z,67.10
2023-05-05T01:33:22.271Z,67.11
2023-05-05T01:35:58.658Z,67.42
2023-05-05T01:38:37.867Z,67.44
2023-05-05T01:41:14.409Z,67.47
2023-05-05T01:43:47.769Z,67.51
2023-05-05T01:46:22.743Z,67.65
2023-05-05T01:48:55.040Z,67.90
2023-05-05T01:51:27.083Z,68.07
2023-05-05T01:54:00.572Z,68.29
2023-05-05T01:56:32.705Z,68.45
2023-05-05T01:59:03.962Z,68.50
2023-05-05T02:01:38.259Z,68.70
2023-05-05T02:04:13.205Z,68.78
2023-05-05T02:06:47.496Z,69.14
2023-05-05T02:09:18.246Z,69.25
2023-05-05T02:11:49.531Z,69.50
2023-05-05T02:14:21.841Z,69.52
2023-05-05T02:16:54.892Z,69.54
2023-05-05T02:19:32.149Z,69.57
2023-05-05T02:22:03.291Z,69.38
2023-05-05T02:24:33.806Z,69.49
2023-05-05T02:27:06.982Z,69.45
2023-05-05T02:29:40.455Z,69.28
2023-05-05T02:32:23.029Z,69.01
2023-05-05T02:34:55.352Z,68.88
2023-05-05T02:37:29.321Z,68.69
2023-05-05T02:40:04.557Z,68.49
2023-05-05T02:42:38.040Z,68.59
2023-05-05T02:45:14.104Z,68.54
2023-05-05T02:47:44.653Z,68.54
2023-05-05T02:50:15.727Z,68.50
2023-05-05T02:52:46.700Z,68.37
2023-05-05T02:55:17.319Z,68.43
2023-05-05T02:58:09.315Z,68.27
2023-05-05T03:00:48.308Z,68.24
2023-05-05T03:03:30.951Z,68.12
2023-05-05T03:06:04.570Z,68.06
2023-05-05T03:08:50.369Z,68.08
2023-05-05T03:11:26.886Z,67.97
2023-05-05T03:14:17.327Z,67.92
2023-05-05T03:16:50.027Z,67.71
2023-05-05T03:19:21.989Z,67.52
2023-05-05T03:21:53.110Z,67.84
2023-05-05T03:24:23.969Z,67.91
2023-05-05T03:26:54.737Z,68.04
2023-05-05T03:29:25.430Z,67.88
2023-05-05T03:31:55.970Z,67.88
2023-05-05T03:34:26.406Z,67.93
2023-05-05T03:36:57.519Z,67.91
2023-05-05T03:39:27.930Z,68.04
2023-05-05T03:41:58.329Z,68.04
2023-05-05T03:44:30.481Z,68.04
2023-05-05T03:47:01.168Z,67.95
2023-05-05T03:49:31.630Z,67.95
2023-05-05T03:52:02.241Z,67.95
2023-05-05T03:54:32.705Z,67.93
2023-05-05T03:57:04.066Z,68.08
2023-05-05T03:59:34.563Z,68.21
2023-05-05T04:02:05.199Z,68.11
2023-05-05T04:04:35.770Z,68.13
2023-05-05T04:07:06.319Z,68.13
2023-05-05T04:09:36.967Z,67.95
2023-05-05T04:12:07.861Z,67.94
2023-05-05T04:14:39.729Z,67.91
2023-05-05T04:17:11.663Z,67.78
2023-05-05T04:19:42.233Z,67.78
2023-05-05T04:22:12.748Z,67.76
2023-05-05T04:24:43.199Z,67.76
2023-05-05T04:27:13.651Z,67.70
2023-05-05T04:29:44.203Z,67.52
2023-05-05T04:32:14.614Z,67.53
2023-05-05T04:34:46.830Z,67.29
2023-05-05T04:37:18.760Z,66.84
2023-05-05T04:39:49.595Z,66.60
2023-05-05T04:42:20.051Z,66.60
2023-05-05T04:44:50.559Z,66.28
2023-05-05T04:47:22.024Z,66.18
2023-05-05T04:49:54.039Z,66.03
2023-05-05T04:52:24.425Z,65.78
2023-05-05T04:54:55.029Z,65.65
2023-05-05T04:57:27.641Z,65.36
2023-05-05T04:59:59.603Z,64.51
2023-05-05T05:02:30.295Z,61.21
2023-05-05T05:05:01.395Z,59.11
2023-05-05T05:07:32.618Z,58.46
2023-05-05T05:10:03.181Z,59.32
2023-05-05T05:12:33.759Z,57.10
2023-05-05T05:15:04.625Z,56.66
2023-05-05T05:17:35.241Z,56.53
2023-05-05T05:20:08.878Z,54.77
2023-05-05T05:22:42.154Z,55.49
2023-05-05T05:25:13.812Z,53.87
2023-05-05T05:27:55.249Z,53.17
2023-05-05T05:30:20.485Z,53.45
2023-05-05T05:32:53.827Z,53.59
2023-05-05T05:35:24.548Z,52.40
2023-05-05T05:37:55.296Z,51.54
2023-05-05T05:40:26.421Z,51.64
2023-05-05T05:42:58.132Z,51.89
2023-05-05T05:45:32.128Z,50.57
2023-05-05T05:48:02.835Z,50.86
2023-05-05T05:50:35.931Z,51.84
2023-05-05T05:53:06.766Z,52.83
2023-05-05T05:55:37.300Z,51.03
2023-05-05T05:58:08.277Z,48.24
2023-05-05T06:00:40.886Z,49.80
2023-05-05T06:03:12.064Z,48.36
2023-05-05T06:05:43.118Z,47.66
2023-05-05T06:08:15.126Z,46.15
2023-05-05T06:10:48.194Z,47.55
2023-05-05T06:13:18.859Z,50.02
2023-05-05T06:15:49.715Z,51.69
2023-05-05T06:18:20.856Z,52.16
2023-05-05T06:20:53.096Z,49.95
2023-05-05T06:23:23.719Z,50.43
2023-05-05T06:25:56.808Z,51.16
2023-05-05T06:28:27.584Z,50.46
2023-05-05T06:30:59.647Z,50.07
2023-05-05T06:33:33.797Z,48.60
2023-05-05T06:36:06.174Z,48.09
2023-05-05T06:38:36.930Z,50.51
2023-05-05T06:41:07.472Z,50.90
2023-05-05T06:43:38.150Z,53.00
2023-05-05T06:46:08.886Z,54.03
2023-05-05T06:48:39.698Z,54.45
2023-05-05T06:51:11.114Z,54.24
2023-05-05T06:53:43.706Z,53.66
2023-05-05T06:56:14.217Z,53.25
2023-05-05T06:58:46.671Z,53.31
2023-05-05T07:01:21.680Z,53.24
2023-05-05T07:03:54.707Z,53.09
2023-05-05T07:06:25.375Z,52.63
2023-05-05T07:08:57.836Z,53.64
2023-05-05T07:11:28.504Z,53.20
2023-05-05T07:14:01.522Z,52.85
2023-05-05T07:16:33.984Z,52.59
2023-05-05T07:19:10.269Z,53.11
2023-05-05T07:21:40.118Z,53.65
2023-05-05T07:24:11.116Z,53.79
2023-05-05T07:26:41.752Z,53.74
2023-05-05T07:29:12.445Z,54.07
2023-05-05T07:31:46.005Z,53.75
2023-05-05T07:34:16.669Z,53.45
2023-05-05T07:36:49.058Z,53.21
2023-05-05T07:39:21.206Z,53.05
2023-05-05T07:41:51.680Z,53.32
2023-05-05T07:44:22.339Z,53.45
2023-05-05T07:46:53.387Z,53.29
2023-05-05T07:49:26.262Z,52.94
2023-05-05T07:51:58.307Z,53.25
2023-05-05T07:54:29.015Z,53.31
2023-05-05T07:57:02.185Z,52.95
2023-05-05T07:59:33.335Z,52.60
2023-05-05T08:02:07.849Z,52.78
2023-05-05T08:04:38.614Z,52.53
2023-05-05T08:07:12.444Z,52.61
2023-05-05T08:09:44.913Z,52.43
2023-05-05T08:12:18.692Z,52.68
2023-05-05T08:14:49.315Z,53.17
2023-05-05T08:17:20.157Z,53.03
2023-05-05T08:19:54.764Z,52.40
2023-05-05T08:22:27.926Z,51.88
2023-05-05T08:25:00.043Z,51.41
2023-05-05T08:27:33.061Z,51.83
2023-05-05T08:30:06.321Z,51.75
2023-05-05T08:32:39.393Z,51.81
2023-05-05T08:35:14.164Z,51.34
2023-05-05T08:37:46.880Z,51.18
2023-05-05T08:40:18.788Z,51.18
2023-05-05T08:42:51.060Z,51.18
2023-05-05T08:45:21.686Z,50.94
2023-05-05T08:47:55.129Z,50.13
2023-05-05T08:50:34.268Z,50.07
2023-05-05T08:53:22.409Z,50.41
2023-05-05T08:55:56.454Z,50.40
2023-05-05T08:58:29.024Z,49.69
2023-05-05T09:01:02.439Z,49.75
2023-05-05T09:03:35.182Z,49.49
2023-05-05T09:06:09.634Z,49.47
2023-05-05T09:08:41.948Z,49.19
2023-05-05T09:11:12.654Z,49.22
2023-05-05T09:13:44.903Z,48.54
2023-05-05T09:16:15.952Z,48.24
2023-05-05T09:18:47.499Z,48.41
2023-05-05T09:21:24.625Z,48.13
2023-05-05T09:24:12.795Z,48.11
2023-05-05T09:26:45.590Z,48.05
2023-05-05T09:29:21.473Z,47.90
2023-05-05T09:32:07.760Z,47.52
2023-05-05T09:34:39.055Z,47.05
2023-05-05T09:37:09.954Z,46.94
2023-05-05T09:39:43.608Z,46.85
2023-05-05T09:42:20.088Z,47.32
2023-05-05T09:44:51.554Z,46.62
2023-05-05T09:47:29.325Z,46.18
2023-05-05T09:50:00.934Z,46.10
2023-05-05T09:52:31.979Z,46.08
2023-05-05T09:55:02.535Z,47.00
2023-05-05T09:57:35.127Z,46.68
2023-05-05T10:00:08.232Z,46.98
2023-05-05T10:02:40.546Z,46.88
2023-05-05T10:05:14.401Z,45.70
2023-05-05T10:07:47.276Z,45.24
2023-05-05T10:10:19.236Z,44.70
2023-05-05T10:12:50.970Z,44.60
2023-05-05T10:15:22.383Z,45.10
2023-05-05T10:18:06.659Z,44.86
2023-05-05T10:20:29.539Z,44.40
2023-05-05T10:23:03.175Z,44.95
2023-05-05T10:25:45.880Z,44.26
2023-05-05T10:28:19.492Z,44.21
2023-05-05T10:30:52.354Z,43.71
2023-05-05T10:33:32.160Z,43.73
2023-05-05T10:36:03.344Z,44.21
2023-05-05T10:38:34.600Z,44.62
2023-05-05T10:41:06.464Z,44.08
2023-05-05T10:43:42.767Z,44.00
2023-05-05T10:46:13.595Z,44.56
2023-05-05T10:49:02.298Z,44.16
2023-05-05T10:51:52.307Z,45.09
2023-05-05T10:54:38.611Z,44.39
2023-05-05T10:57:11.438Z,44.77
2023-05-05T10:59:44.301Z,44.43
2023-05-05T11:02:25.048Z,43.66
2023-05-05T11:05:19.028Z,44.00
2023-05-05T11:07:53.481Z,43.22
2023-05-05T11:10:27.575Z,43.61
2023-05-05T11:13:03.143Z,43.30
2023-05-05T11:15:36.000Z,44.17
2023-05-05T11:18:08.252Z,44.16
2023-05-05T11:20:45.427Z,44.03
2023-05-05T11:23:23.854Z,43.50
2023-05-05T11:25:57.645Z,43.25
2023-05-05T11:28:30.973Z,43.51
2023-05-05T11:31:06.302Z,43.12
2023-05-05T11:33:40.592Z,42.99
2023-05-05T11:36:13.198Z,41.81
2023-05-05T11:38:58.770Z,42.13
2023-05-05T11:41:35.461Z,42.63
2023-05-05T11:44:23.804Z,42.62
2023-05-05T11:46:57.403Z,42.19
2023-05-05T11:49:30.299Z,42.69
2023-05-05T11:52:09.777Z,42.31
2023-05-05T11:54:44.658Z,42.56
2023-05-05T11:57:17.600Z,42.67
2023-05-05T12:00:06.101Z,42.80
2023-05-05T12:02:38.331Z,42.26
2023-05-05T12:05:09.453Z,42.14
2023-05-05T12:07:41.762Z,42.35
2023-05-05T12:10:14.276Z,41.98
2023-05-05T12:12:45.680Z,42.27
2023-05-05T12:15:16.724Z,42.11
2023-05-05T12:17:49.147Z,42.31
2023-05-05T12:20:21.298Z,41.80
2023-05-05T12:22:59.156Z,41.57
2023-05-05T12:25:36.891Z,40.91
2023-05-05T12:28:08.869Z,40.89
2023-05-05T12:30:41.163Z,40.99
2023-05-05T12:33:13.407Z,41.21
2023-05-05T12:35:45.142Z,41.64
2023-05-05T12:38:18.755Z,42.07
2023-05-05T12:40:52.853Z,42.23
2023-05-05T12:43:31.095Z,42.39
2023-05-05T12:46:10.519Z,43.01
2023-05-05T12:48:47.949Z,42.48
2023-05-05T12:51:24.607Z,42.24
2023-05-05T12:54:12.706Z,43.00
2023-05-05T12:56:47.888Z,43.05
2023-05-05T12:59:27.537Z,43.36
2023-05-05T13:02:01.536Z,43.44
2023-05-05T13:04:32.655Z,42.88
2023-05-05T13:07:22.481Z,42.75
2023-05-05T13:09:57.131Z,43.45
2023-05-05T13:12:29.337Z,43.40
2023-05-05T13:14:59.824Z,43.55
2023-05-05T13:17:31.099Z,43.89
2023-05-05T13:20:02.799Z,43.54
2023-05-05T13:22:33.338Z,43.53
2023-05-05T13:25:07.033Z,43.20
2023-05-05T13:27:38.662Z,42.81
2023-05-05T13:30:15.712Z,42.59
2023-05-05T13:32:46.726Z,43.37
2023-05-05T13:35:17.327Z,43.44
2023-05-05T13:37:48.434Z,43.21
2023-05-05T13:40:18.934Z,43.37
2023-05-05T13:42:50.440Z,43.36
2023-05-05T13:45:24.292Z,42.66
2023-05-05T13:47:58.547Z,42.98
2023-05-05T13:50:29.296Z,43.26
2023-05-05T13:53:00.126Z,43.11
2023-05-05T13:55:33.305Z,43.05
2023-05-05T13:58:05.242Z,43.61
2023-05-05T14:00:36.298Z,43.17
2023-05-05T14:03:08.739Z,43.44
2023-05-05T14:05:41.120Z,43.57
2023-05-05T14:08:11.705Z,43.15
2023-05-05T14:10:47.390Z,42.87
2023-05-05T14:13:20.391Z,42.84
2023-05-05T14:15:54.377Z,42.24
2023-05-05T14:18:26.281Z,42.17
2023-05-05T14:21:00.534Z,41.80
2023-05-05T14:23:31.910Z,41.45
2023-05-05T14:26:04.641Z,41.78
2023-05-05T14:28:35.243Z,42.33
2023-05-05T14:31:09.599Z,42.90
2023-05-05T14:33:39.414Z,43.23
2023-05-05T14:36:10.342Z,42.95
2023-05-05T14:38:45.962Z,42.67
2023-05-05T14:41:20.539Z,43.45
2023-05-05T14:43:51.056Z,42.99
2023-05-05T14:46:21.688Z,42.95
2023-05-05T14:48:52.273Z,42.92
2023-05-05T14:51:22.812Z,43.08
2023-05-05T14:53:53.339Z,43.03
2023-05-05T14:56:24.932Z,43.07
2023-05-05T14:58:58.984Z,43.52
2023-05-05T15:01:29.741Z,43.78
2023-05-05T15:04:01.885Z,43.53
2023-05-05T15:06:32.532Z,43.45
2023-05-05T15:09:04.044Z,43.36
2023-05-05T15:11:34.488Z,42.75
2023-05-05T15:14:06.553Z,42.64
2023-05-05T15:16:37.129Z,42.87
2023-05-05T15:19:10.365Z,42.62
2023-05-05T15:21:41.112Z,42.65
2023-05-05T15:24:12.052Z,42.76
2023-05-05T15:26:42.936Z,42.89
2023-05-05T15:29:13.501Z,42.34
2023-05-05T15:31:45.436Z,43.05
2023-05-05T15:34:15.951Z,43.84
2023-05-05T15:36:46.608Z,43.79
2023-05-05T15:39:20.288Z,43.35
2023-05-05T15:41:52.137Z,43.42
2023-05-05T15:44:26.286Z,43.75
2023-05-05T15:46:58.471Z,44.10
2023-05-05T15:49:28.856Z,44.38
2023-05-05T15:52:02.549Z,44.03
2023-05-05T15:54:34.089Z,43.87
2023-05-05T15:57:04.743Z,43.89
2023-05-05T15:59:35.805Z,43.93
2023-05-05T16:02:07.775Z,44.42
2023-05-05T16:04:39.867Z,44.57
2023-05-05T16:07:10.353Z,44.77
2023-05-05T16:09:42.792Z,44.99
2023-05-05T16:12:14.028Z,45.22
2023-05-05T16:14:44.702Z,45.34
2023-05-05T16:17:15.260Z,45.53
2023-05-05T16:19:45.867Z,45.84
2023-05-05T16:22:16.334Z,45.96
2023-05-05T16:24:47.012Z,46.34
2023-05-05T16:27:17.750Z,46.03
2023-05-05T16:29:48.175Z,46.22
2023-05-05T16:32:19.275Z,46.45
2023-05-05T16:34:49.977Z,46.54
2023-05-05T16:37:20.547Z,46.60
2023-05-05T16:39:52.736Z,46.66
2023-05-05T16:42:24.185Z,46.89
2023-05-05T16:44:54.772Z,47.05
2023-05-05T16:47:27.277Z,47.22
2023-05-05T16:49:57.943Z,47.19
2023-05-05T16:52:28.419Z,47.38
2023-05-05T16:54:59.117Z,47.69
2023-05-05T16:57:29.653Z,47.79
2023-05-05T17:00:01.925Z,48.06
2023-05-05T17:02:32.596Z,48.16
2023-05-05T17:05:03.847Z,48.25
2023-05-05T17:07:34.336Z,48.23
2023-05-05T17:10:05.252Z,48.27
2023-05-05T17:12:35.851Z,48.60
2023-05-05T17:15:07.861Z,48.72
2023-05-05T17:17:40.004Z,48.79
2023-05-05T17:20:11.981Z,48.72
2023-05-05T17:22:42.586Z,48.58
2023-05-05T17:25:13.288Z,48.68
2023-05-05T17:27:43.815Z,48.83
2023-05-05T17:30:17.735Z,49.26
2023-05-05T17:32:48.731Z,49.44
2023-05-05T17:35:19.539Z,49.75
2023-05-05T17:37:50.048Z,50.05
2023-05-05T17:40:20.676Z,50.23
2023-05-05T17:42:51.226Z,50.48
2023-05-05T17:45:23.052Z,50.78
2023-05-05T17:47:56.196Z,51.02
2023-05-05T17:50:26.891Z,51.38
2023-05-05T17:52:58.082Z,51.45
2023-05-05T17:55:28.926Z,51.64
2023-05-05T17:57:59.915Z,52.21
2023-05-05T18:00:32.198Z,52.53
2023-05-05T18:03:04.451Z,52.90
2023-05-05T18:05:37.264Z,53.08
2023-05-05T18:08:08.653Z,53.38
2023-05-05T18:10:40.948Z,53.53
2023-05-05T18:13:11.528Z,53.61
2023-05-05T18:15:43.736Z,53.73
2023-05-05T18:18:15.645Z,53.91
2023-05-05T18:20:47.257Z,53.94
2023-05-05T18:23:17.861Z,54.12
2023-05-05T18:25:49.524Z,54.09
2023-05-05T18:28:20.468Z,54.43
2023-05-05T18:30:52.597Z,54.56
2023-05-05T18:33:23.149Z,54.47
2023-05-05T18:35:56.565Z,54.76
2023-05-05T18:38:27.190Z,54.85
2023-05-05T18:40:57.935Z,54.82
2023-05-05T18:43:29.774Z,55.02
2023-05-05T18:46:00.252Z,55.25
2023-05-05T18:48:31.887Z,55.39
2023-05-05T18:51:08.587Z,55.40
2023-05-05T18:53:39.087Z,55.43
2023-05-05T18:56:11.000Z,55.48
2023-05-05T18:58:41.489Z,55.65
2023-05-05T19:01:13.756Z,55.70
2023-05-05T19:03:48.879Z,55.93
2023-05-05T19:06:19.486Z,56.06
2023-05-05T19:08:50.227Z,56.18
2023-05-05T19:11:30.796Z,56.21
2023-05-05T19:14:01.687Z,56.26
2023-05-05T19:16:32.244Z,56.26
2023-05-05T19:19:06.997Z,56.25
2023-05-05T19:21:37.473Z,56.24
2023-05-05T19:24:10.662Z,56.50
2023-05-05T19:26:41.245Z,56.37
2023-05-05T19:29:12.126Z,56.53
2023-05-05T19:31:42.743Z,56.53
2023-05-05T19:34:13.278Z,56.58
2023-05-05T19:36:54.593Z,56.64
2023-05-05T19:39:26.131Z,56.80
2023-05-05T19:41:56.677Z,57.04
2023-05-05T19:44:28.775Z,57.21
2023-05-05T19:47:01.626Z,57.30
2023-05-05T19:49:32.437Z,57.50
2023-05-05T19:52:03.278Z,57.56
2023-05-05T19:54:33.848Z,57.66
2023-05-05T19:57:05.185Z,57.95
2023-05-05T19:59:36.130Z,58.13
2023-05-05T20:02:09.088Z,59.96
2023-05-05T20:04:39.780Z,62.09
2023-05-05T20:07:10.980Z,62.22
2023-05-05T20:09:41.495Z,63.15
2023-05-05T20:12:12.644Z,63.51
2023-05-05T20:14:43.178Z,63.25
2023-05-05T20:17:15.654Z,62.78
2023-05-05T20:19:50.181Z,61.49
2023-05-05T20:22:22.305Z,62.16
2023-05-05T20:24:53.863Z,61.94
2023-05-05T20:27:25.946Z,61.42
2023-05-05T20:29:56.637Z,61.38
2023-05-05T20:32:27.145Z,60.23
2023-05-05T20:34:58.190Z,60.45
2023-05-05T20:37:28.795Z,60.01
2023-05-05T20:39:59.299Z,60.17
2023-05-05T20:42:29.945Z,59.78
2023-05-05T20:45:02.290Z,60.16
2023-05-05T20:47:38.228Z,59.78
2023-05-05T20:50:11.911Z,59.83
2023-05-05T20:52:44.422Z,59.51
2023-05-05T20:55:15.117Z,59.68
2023-05-05T20:57:46.168Z,59.73
2023-05-05T21:00:17.020Z,59.78
2023-05-05T21:02:49.430Z,59.42
2023-05-05T21:05:20.868Z,59.77
2023-05-05T21:07:53.226Z,59.62
2023-05-05T21:10:24.072Z,59.80
2023-05-05T21:12:55.460Z,59.87
2023-05-05T21:15:26.194Z,59.79
2023-05-05T21:17:58.743Z,59.70
2023-05-05T21:20:29.524Z,60.03
2023-05-05T21:23:01.234Z,59.78
2023-05-05T21:25:31.885Z,59.93
2023-05-05T21:28:02.326Z,59.84
2023-05-05T21:30:33.024Z,59.57
2023-05-05T21:33:03.563Z,59.76
2023-05-05T21:35:34.100Z,59.88
2023-05-05T21:38:04.752Z,59.76
2023-05-05T21:40:37.049Z,59.85
2023-05-05T21:43:08.025Z,59.72
2023-05-05T21:45:40.495Z,59.96
2023-05-05T21:48:11.319Z,59.67
2023-05-05T21:50:41.785Z,59.89
2023-05-05T21:53:14.778Z,59.66
2023-05-05T21:55:49.172Z,59.62
2023-05-05T21:58:19.690Z,59.68
2023-05-05T22:00:50.703Z,59.68
2023-05-05T22:03:24.289Z,59.81
2023-05-05T22:05:56.591Z,59.73
2023-05-05T22:08:27.047Z,59.78
2023-05-05T22:10:58.318Z,60.24
2023-05-05T22:13:30.811Z,60.63
2023-05-05T22:16:03.776Z,60.55
2023-05-05T22:18:35.758Z,61.04
2023-05-05T22:21:07.080Z,61.73
2023-05-05T22:23:38.914Z,61.74
2023-05-05T22:26:10.308Z,63.26
2023-05-05T22:28:41.598Z,64.31
2023-05-05T22:31:13.597Z,65.64
2023-05-05T22:33:44.202Z,67.15
2023-05-05T22:36:15.081Z,68.15
2023-05-05T22:38:46.223Z,68.22
2023-05-05T22:41:16.751Z,67.93
2023-05-05T22:43:48.698Z,67.90
2023-05-05T22:46:19.146Z,69.57
2023-05-05T22:48:49.842Z,68.47
2023-05-05T22:51:21.561Z,68.49
2023-05-05T22:53:52.175Z,67.10
2023-05-05T22:56:23.447Z,69.10
2023-05-05T22:58:53.971Z,68.32
2023-05-05T23:01:24.779Z,68.86
2023-05-05T23:03:56.448Z,66.70
2023-05-05T23:06:27.935Z,67.65
2023-05-05T23:08:59.937Z,68.80
2023-05-05T23:11:30.524Z,67.69
2023-05-05T23:14:03.584Z,68.98
2023-05-05T23:16:34.567Z,69.24
2023-05-05T23:19:05.556Z,69.48
2023-05-05T23:21:45.485Z,70.35
2023-05-05T23:24:08.382Z,71.47
2023-05-05T23:26:39.046Z,74.80
2023-05-05T23:29:09.587Z,74.06
2023-05-05T23:31:40.210Z,76.01
2023-05-05T23:34:12.118Z,76.52
2023-05-05T23:36:46.672Z,75.49
2023-05-05T23:39:19.048Z,76.35
2023-05-05T23:41:50.670Z,75.29
2023-05-05T23:44:21.313Z,76.45
2023-05-05T23:46:51.908Z,76.33
2023-05-05T23:49:25.548Z,77.42
2023-05-05T23:51:59.142Z,77.06
2023-05-05T23:54:31.231Z,78.11
2023-05-05T23:57:02.262Z,77.80
2023-05-05T23:59:33.041Z,78.86
